sensor_id;sensor_type;location;lat;lon;timestamp;P1;durP1;ratioP1;P2;durP2;ratioP2
83184;SDS011;73080;48.768;11.528;2024-02-15T00:02:15;7.45;;;3.92;;
83184;SDS011;73080;48.768;11.528;2024-02-15T00:04:40;10.07;;;5.35;;
83184;SDS011;73080;48.768;11.528;2024-02-15T00:07:06;9.95;;;5.90;;
83184;SDS011;73080;48.768;11.528;2024-02-15T00:09:31;9.07;;;5.38;;
83184;SDS011;73080;48.768;11.528;2024-02-15T00:11:57;11.80;;;6.63;;
83184;SDS011;73080;48.768;11.528;2024-02-15T00:14:22;11.57;;;5.97;;
83184;SDS011;73080;48.768;11.528;2024-02-15T00:16:47;10.20;;;6.22;;
83184;SDS011;73080;48.768;11.528;2024-02-15T00:19:13;8.02;;;5.20;;
83184;SDS011;73080;48.768;11.528;2024-02-15T00:21:42;11.43;;;6.50;;
83184;SDS011;73080;48.768;11.528;2024-02-15T00:24:08;9.23;;;5.15;;
83184;SDS011;73080;48.768;11.528;2024-02-15T00:26:33;8.87;;;4.80;;
83184;SDS011;73080;48.768;11.528;2024-02-15T00:28:58;8.05;;;4.53;;
83184;SDS011;73080;48.768;11.528;2024-02-15T00:31:24;6.37;;;3.80;;
83184;SDS011;73080;48.768;11.528;2024-02-15T00:33:49;7.25;;;3.85;;
83184;SDS011;73080;48.768;11.528;2024-02-15T00:36:14;8.20;;;4.40;;
83184;SDS011;73080;48.768;11.528;2024-02-15T00:38:40;9.40;;;3.92;;
83184;SDS011;73080;48.768;11.528;2024-02-15T00:41:06;7.93;;;5.13;;
83184;SDS011;73080;48.768;11.528;2024-02-15T00:43:34;6.97;;;4.43;;
83184;SDS011;73080;48.768;11.528;2024-02-15T00:46:00;6.30;;;3.78;;
83184;SDS011;73080;48.768;11.528;2024-02-15T00:48:25;8.93;;;4.50;;
83184;SDS011;73080;48.768;11.528;2024-02-15T00:50:53;7.77;;;3.30;;
83184;SDS011;73080;48.768;11.528;2024-02-15T00:53:19;6.32;;;3.45;;
83184;SDS011;73080;48.768;11.528;2024-02-15T00:55:44;8.30;;;3.33;;
83184;SDS011;73080;48.768;11.528;2024-02-15T00:58:10;5.70;;;3.35;;
83184;SDS011;73080;48.768;11.528;2024-02-15T01:00:35;9.45;;;3.83;;
83184;SDS011;73080;48.768;11.528;2024-02-15T01:03:04;8.77;;;4.22;;
83184;SDS011;73080;48.768;11.528;2024-02-15T01:05:29;7.32;;;3.53;;
83184;SDS011;73080;48.768;11.528;2024-02-15T01:07:55;6.82;;;3.72;;
83184;SDS011;73080;48.768;11.528;2024-02-15T01:10:20;6.70;;;3.28;;
83184;SDS011;73080;48.768;11.528;2024-02-15T01:12:45;7.90;;;3.80;;
83184;SDS011;73080;48.768;11.528;2024-02-15T01:15:11;8.20;;;3.92;;
83184;SDS011;73080;48.768;11.528;2024-02-15T01:17:36;7.33;;;4.00;;
83184;SDS011;73080;48.768;11.528;2024-02-15T01:20:02;7.00;;;3.83;;
83184;SDS011;73080;48.768;11.528;2024-02-15T01:22:30;8.45;;;4.13;;
83184;SDS011;73080;48.768;11.528;2024-02-15T01:24:56;7.30;;;4.70;;
83184;SDS011;73080;48.768;11.528;2024-02-15T01:27:21;6.33;;;3.27;;
83184;SDS011;73080;48.768;11.528;2024-02-15T01:29:46;7.00;;;4.18;;
83184;SDS011;73080;48.768;11.528;2024-02-15T01:32:12;8.80;;;4.30;;
83184;SDS011;73080;48.768;11.528;2024-02-15T01:34:37;7.72;;;4.00;;
83184;SDS011;73080;48.768;11.528;2024-02-15T01:37:05;8.57;;;5.07;;
83184;SDS011;73080;48.768;11.528;2024-02-15T01:39:31;6.93;;;3.92;;
83184;SDS011;73080;48.768;11.528;2024-02-15T01:41:56;7.07;;;3.97;;
83184;SDS011;73080;48.768;11.528;2024-02-15T01:44:22;6.63;;;3.47;;
83184;SDS011;73080;48.768;11.528;2024-02-15T01:46:47;6.95;;;3.70;;
83184;SDS011;73080;48.768;11.528;2024-02-15T01:49:13;6.75;;;3.05;;
83184;SDS011;73080;48.768;11.528;2024-02-15T01:51:45;7.88;;;3.28;;
83184;SDS011;73080;48.768;11.528;2024-02-15T01:54:11;6.53;;;3.70;;
83184;SDS011;73080;48.768;11.528;2024-02-15T01:56:38;6.72;;;4.18;;
83184;SDS011;73080;48.768;11.528;2024-02-15T01:59:03;8.15;;;3.53;;
83184;SDS011;73080;48.768;11.528;2024-02-15T02:01:30;7.43;;;3.72;;
83184;SDS011;73080;48.768;11.528;2024-02-15T02:03:56;7.25;;;3.67;;
83184;SDS011;73080;48.768;11.528;2024-02-15T02:06:21;7.60;;;4.32;;
83184;SDS011;73080;48.768;11.528;2024-02-15T02:08:47;9.52;;;3.38;;
83184;SDS011;73080;48.768;11.528;2024-02-15T02:11:12;7.68;;;2.90;;
83184;SDS011;73080;48.768;11.528;2024-02-15T02:13:41;6.68;;;3.72;;
83184;SDS011;73080;48.768;11.528;2024-02-15T02:16:23;7.43;;;4.03;;
83184;SDS011;73080;48.768;11.528;2024-02-15T02:18:49;7.60;;;4.35;;
83184;SDS011;73080;48.768;11.528;2024-02-15T02:21:15;8.82;;;3.72;;
83184;SDS011;73080;48.768;11.528;2024-02-15T02:23:40;7.05;;;3.28;;
83184;SDS011;73080;48.768;11.528;2024-02-15T02:26:08;7.13;;;4.00;;
83184;SDS011;73080;48.768;11.528;2024-02-15T02:30:59;6.10;;;3.20;;
83184;SDS011;73080;48.768;11.528;2024-02-15T02:33:25;6.78;;;3.42;;
83184;SDS011;73080;48.768;11.528;2024-02-15T02:35:50;8.32;;;4.10;;
83184;SDS011;73080;48.768;11.528;2024-02-15T02:38:15;7.18;;;3.90;;
83184;SDS011;73080;48.768;11.528;2024-02-15T02:40:44;6.07;;;4.70;;
83184;SDS011;73080;48.768;11.528;2024-02-15T02:45:34;6.10;;;3.50;;
83184;SDS011;73080;48.768;11.528;2024-02-15T02:48:00;7.28;;;3.25;;
83184;SDS011;73080;48.768;11.528;2024-02-15T02:50:25;5.68;;;3.58;;
83184;SDS011;73080;48.768;11.528;2024-02-15T02:52:51;6.82;;;3.70;;
83184;SDS011;73080;48.768;11.528;2024-02-15T02:55:16;6.05;;;3.40;;
83184;SDS011;73080;48.768;11.528;2024-02-15T02:57:42;6.63;;;3.58;;
83184;SDS011;73080;48.768;11.528;2024-02-15T03:00:09;6.38;;;3.50;;
83184;SDS011;73080;48.768;11.528;2024-02-15T03:02:36;6.18;;;2.85;;
83184;SDS011;73080;48.768;11.528;2024-02-15T03:05:05;6.72;;;3.63;;
83184;SDS011;73080;48.768;11.528;2024-02-15T03:07:33;7.18;;;3.95;;
83184;SDS011;73080;48.768;11.528;2024-02-15T03:10:03;7.93;;;4.32;;
83184;SDS011;73080;48.768;11.528;2024-02-15T03:12:32;7.15;;;4.53;;
83184;SDS011;73080;48.768;11.528;2024-02-15T03:15:01;8.30;;;3.83;;
83184;SDS011;73080;48.768;11.528;2024-02-15T03:17:27;6.60;;;3.85;;
83184;SDS011;73080;48.768;11.528;2024-02-15T03:19:53;6.68;;;3.42;;
83184;SDS011;73080;48.768;11.528;2024-02-15T03:22:18;6.63;;;4.45;;
83184;SDS011;73080;48.768;11.528;2024-02-15T03:24:43;6.85;;;4.18;;
83184;SDS011;73080;48.768;11.528;2024-02-15T03:27:09;8.07;;;5.33;;
83184;SDS011;73080;48.768;11.528;2024-02-15T03:29:34;7.43;;;4.13;;
83184;SDS011;73080;48.768;11.528;2024-02-15T03:32:02;8.65;;;4.55;;
83184;SDS011;73080;48.768;11.528;2024-02-15T03:34:28;7.80;;;4.55;;
83184;SDS011;73080;48.768;11.528;2024-02-15T03:36:53;6.20;;;3.40;;
83184;SDS011;73080;48.768;11.528;2024-02-15T03:39:19;6.63;;;3.33;;
83184;SDS011;73080;48.768;11.528;2024-02-15T03:41:45;5.50;;;3.13;;
83184;SDS011;73080;48.768;11.528;2024-02-15T03:44:10;5.60;;;2.88;;
83184;SDS011;73080;48.768;11.528;2024-02-15T03:46:37;5.80;;;3.65;;
83184;SDS011;73080;48.768;11.528;2024-02-15T03:49:02;6.65;;;3.03;;
83184;SDS011;73080;48.768;11.528;2024-02-15T03:51:27;7.80;;;3.47;;
83184;SDS011;73080;48.768;11.528;2024-02-15T03:53:53;5.13;;;2.47;;
83184;SDS011;73080;48.768;11.528;2024-02-15T03:56:18;6.68;;;2.83;;
83184;SDS011;73080;48.768;11.528;2024-02-15T03:58:44;6.97;;;2.83;;
83184;SDS011;73080;48.768;11.528;2024-02-15T04:01:09;5.10;;;2.88;;
83184;SDS011;73080;48.768;11.528;2024-02-15T04:03:37;5.90;;;3.05;;
83184;SDS011;73080;48.768;11.528;2024-02-15T04:06:03;5.47;;;2.70;;
83184;SDS011;73080;48.768;11.528;2024-02-15T04:08:28;6.88;;;3.10;;
83184;SDS011;73080;48.768;11.528;2024-02-15T04:10:54;6.78;;;3.00;;
83184;SDS011;73080;48.768;11.528;2024-02-15T04:13:22;5.75;;;2.95;;
83184;SDS011;73080;48.768;11.528;2024-02-15T04:15:48;6.25;;;3.30;;
83184;SDS011;73080;48.768;11.528;2024-02-15T04:18:13;6.00;;;3.15;;
83184;SDS011;73080;48.768;11.528;2024-02-15T04:20:38;5.55;;;2.80;;
83184;SDS011;73080;48.768;11.528;2024-02-15T04:23:04;6.07;;;2.80;;
83184;SDS011;73080;48.768;11.528;2024-02-15T04:25:29;7.63;;;4.00;;
83184;SDS011;73080;48.768;11.528;2024-02-15T04:27:55;8.02;;;3.65;;
83184;SDS011;73080;48.768;11.528;2024-02-15T04:30:20;6.32;;;3.35;;
83184;SDS011;73080;48.768;11.528;2024-02-15T04:32:46;9.32;;;4.10;;
83184;SDS011;73080;48.768;11.528;2024-02-15T04:35:11;7.30;;;4.45;;
83184;SDS011;73080;48.768;11.528;2024-02-15T04:37:37;9.50;;;3.75;;
83184;SDS011;73080;48.768;11.528;2024-02-15T04:40:02;6.97;;;3.75;;
83184;SDS011;73080;48.768;11.528;2024-02-15T04:42:28;7.40;;;3.13;;
83184;SDS011;73080;48.768;11.528;2024-02-15T04:44:54;6.35;;;3.45;;
83184;SDS011;73080;48.768;11.528;2024-02-15T04:47:20;5.80;;;3.30;;
83184;SDS011;73080;48.768;11.528;2024-02-15T04:49:45;6.63;;;3.45;;
83184;SDS011;73080;48.768;11.528;2024-02-15T04:52:10;7.05;;;3.53;;
83184;SDS011;73080;48.768;11.528;2024-02-15T04:54:36;6.80;;;3.28;;
83184;SDS011;73080;48.768;11.528;2024-02-15T04:57:01;6.18;;;3.33;;
83184;SDS011;73080;48.768;11.528;2024-02-15T04:59:27;7.22;;;3.33;;
83184;SDS011;73080;48.768;11.528;2024-02-15T05:01:52;5.17;;;2.90;;
83184;SDS011;73080;48.768;11.528;2024-02-15T05:04:18;5.68;;;3.03;;
83184;SDS011;73080;48.768;11.528;2024-02-15T05:06:43;5.27;;;3.10;;
83184;SDS011;73080;48.768;11.528;2024-02-15T05:09:08;7.03;;;2.93;;
83184;SDS011;73080;48.768;11.528;2024-02-15T05:11:34;5.20;;;2.90;;
83184;SDS011;73080;48.768;11.528;2024-02-15T05:13:59;6.17;;;3.07;;
83184;SDS011;73080;48.768;11.528;2024-02-15T05:16:24;5.18;;;2.90;;
83184;SDS011;73080;48.768;11.528;2024-02-15T05:18:50;6.55;;;3.20;;
83184;SDS011;73080;48.768;11.528;2024-02-15T05:21:18;13.50;;;3.50;;
83184;SDS011;73080;48.768;11.528;2024-02-15T05:23:43;6.60;;;3.80;;
83184;SDS011;73080;48.768;11.528;2024-02-15T05:26:09;7.17;;;3.17;;
83184;SDS011;73080;48.768;11.528;2024-02-15T05:28:34;6.97;;;3.65;;
83184;SDS011;73080;48.768;11.528;2024-02-15T05:33:38;6.13;;;3.35;;
83184;SDS011;73080;48.768;11.528;2024-02-15T05:36:03;9.75;;;3.85;;
83184;SDS011;73080;48.768;11.528;2024-02-15T05:38:29;8.10;;;4.43;;
83184;SDS011;73080;48.768;11.528;2024-02-15T05:40:54;7.25;;;3.20;;
83184;SDS011;73080;48.768;11.528;2024-02-15T05:43:22;7.15;;;3.50;;
83184;SDS011;73080;48.768;11.528;2024-02-15T05:45:48;5.97;;;3.17;;
83184;SDS011;73080;48.768;11.528;2024-02-15T05:48:16;6.38;;;3.30;;
83184;SDS011;73080;48.768;11.528;2024-02-15T05:50:41;7.72;;;4.03;;
83184;SDS011;73080;48.768;11.528;2024-02-15T05:53:06;7.23;;;3.53;;
83184;SDS011;73080;48.768;11.528;2024-02-15T05:55:32;7.28;;;3.42;;
83184;SDS011;73080;48.768;11.528;2024-02-15T05:57:57;7.10;;;3.40;;
83184;SDS011;73080;48.768;11.528;2024-02-15T06:00:22;5.97;;;3.47;;
83184;SDS011;73080;48.768;11.528;2024-02-15T06:02:48;8.37;;;3.97;;
83184;SDS011;73080;48.768;11.528;2024-02-15T06:05:13;6.23;;;3.50;;
83184;SDS011;73080;48.768;11.528;2024-02-15T06:07:38;7.13;;;3.53;;
83184;SDS011;73080;48.768;11.528;2024-02-15T06:10:04;7.90;;;4.77;;
83184;SDS011;73080;48.768;11.528;2024-02-15T06:12:29;8.65;;;4.85;;
83184;SDS011;73080;48.768;11.528;2024-02-15T06:14:55;7.95;;;4.10;;
83184;SDS011;73080;48.768;11.528;2024-02-15T06:17:20;7.13;;;4.32;;
83184;SDS011;73080;48.768;11.528;2024-02-15T06:19:46;7.80;;;4.47;;
83184;SDS011;73080;48.768;11.528;2024-02-15T06:22:11;7.03;;;4.22;;
83184;SDS011;73080;48.768;11.528;2024-02-15T06:24:36;6.90;;;4.07;;
83184;SDS011;73080;48.768;11.528;2024-02-15T06:27:02;9.10;;;4.50;;
83184;SDS011;73080;48.768;11.528;2024-02-15T06:29:27;6.45;;;4.45;;
83184;SDS011;73080;48.768;11.528;2024-02-15T06:31:52;7.38;;;4.45;;
83184;SDS011;73080;48.768;11.528;2024-02-15T06:34:18;7.53;;;4.67;;
83184;SDS011;73080;48.768;11.528;2024-02-15T06:36:46;8.60;;;5.27;;
83184;SDS011;73080;48.768;11.528;2024-02-15T06:39:12;7.43;;;3.95;;
83184;SDS011;73080;48.768;11.528;2024-02-15T06:41:37;7.77;;;4.63;;
83184;SDS011;73080;48.768;11.528;2024-02-15T06:44:06;8.23;;;4.53;;
83184;SDS011;73080;48.768;11.528;2024-02-15T06:46:31;9.27;;;5.13;;
83184;SDS011;73080;48.768;11.528;2024-02-15T06:48:56;7.67;;;3.63;;
83184;SDS011;73080;48.768;11.528;2024-02-15T06:51:21;8.07;;;4.10;;
83184;SDS011;73080;48.768;11.528;2024-02-15T06:53:47;7.67;;;4.40;;
83184;SDS011;73080;48.768;11.528;2024-02-15T06:56:12;8.07;;;4.50;;
83184;SDS011;73080;48.768;11.528;2024-02-15T06:58:37;7.00;;;3.80;;
83184;SDS011;73080;48.768;11.528;2024-02-15T07:01:02;7.13;;;4.43;;
83184;SDS011;73080;48.768;11.528;2024-02-15T07:03:31;7.60;;;4.32;;
83184;SDS011;73080;48.768;11.528;2024-02-15T07:05:56;8.85;;;4.88;;
83184;SDS011;73080;48.768;11.528;2024-02-15T07:08:21;6.57;;;3.97;;
83184;SDS011;73080;48.768;11.528;2024-02-15T07:10:47;7.20;;;4.38;;
83184;SDS011;73080;48.768;11.528;2024-02-15T07:13:12;8.48;;;5.43;;
83184;SDS011;73080;48.768;11.528;2024-02-15T07:15:37;6.80;;;4.43;;
83184;SDS011;73080;48.768;11.528;2024-02-15T07:18:05;7.67;;;4.00;;
83184;SDS011;73080;48.768;11.528;2024-02-15T07:20:32;8.60;;;4.03;;
83184;SDS011;73080;48.768;11.528;2024-02-15T07:22:58;7.40;;;3.85;;
83184;SDS011;73080;48.768;11.528;2024-02-15T07:25:23;12.80;;;7.57;;
83184;SDS011;73080;48.768;11.528;2024-02-15T07:27:48;21.87;;;11.83;;
83184;SDS011;73080;48.768;11.528;2024-02-15T07:30:13;13.93;;;9.23;;
83184;SDS011;73080;48.768;11.528;2024-02-15T07:32:39;14.43;;;8.00;;
83184;SDS011;73080;48.768;11.528;2024-02-15T07:35:04;19.83;;;12.27;;
83184;SDS011;73080;48.768;11.528;2024-02-15T07:37:30;11.98;;;7.70;;
83184;SDS011;73080;48.768;11.528;2024-02-15T07:39:55;10.50;;;6.37;;
83184;SDS011;73080;48.768;11.528;2024-02-15T07:42:20;7.53;;;3.73;;
83184;SDS011;73080;48.768;11.528;2024-02-15T07:44:45;10.33;;;4.63;;
83184;SDS011;73080;48.768;11.528;2024-02-15T07:47:11;9.63;;;5.93;;
83184;SDS011;73080;48.768;11.528;2024-02-15T07:49:36;9.13;;;5.73;;
83184;SDS011;73080;48.768;11.528;2024-02-15T07:52:01;8.43;;;5.00;;
83184;SDS011;73080;48.768;11.528;2024-02-15T07:54:27;7.50;;;4.20;;
83184;SDS011;73080;48.768;11.528;2024-02-15T07:56:52;9.40;;;5.57;;
83184;SDS011;73080;48.768;11.528;2024-02-15T07:59:18;6.93;;;4.00;;
83184;SDS011;73080;48.768;11.528;2024-02-15T08:01:43;7.77;;;4.20;;
83184;SDS011;73080;48.768;11.528;2024-02-15T08:04:11;6.63;;;3.40;;
83184;SDS011;73080;48.768;11.528;2024-02-15T08:06:36;8.85;;;3.53;;
83184;SDS011;73080;48.768;11.528;2024-02-15T08:09:02;6.90;;;4.00;;
83184;SDS011;73080;48.768;11.528;2024-02-15T08:11:27;7.07;;;4.15;;
83184;SDS011;73080;48.768;11.528;2024-02-15T08:13:53;8.00;;;5.40;;
83184;SDS011;73080;48.768;11.528;2024-02-15T08:16:18;6.20;;;3.60;;
83184;SDS011;73080;48.768;11.528;2024-02-15T08:18:46;6.22;;;3.33;;
83184;SDS011;73080;48.768;11.528;2024-02-15T08:21:11;8.38;;;3.83;;
83184;SDS011;73080;48.768;11.528;2024-02-15T08:23:39;7.90;;;4.18;;
83184;SDS011;73080;48.768;11.528;2024-02-15T08:26:04;6.60;;;3.53;;
83184;SDS011;73080;48.768;11.528;2024-02-15T08:28:30;8.30;;;3.58;;
83184;SDS011;73080;48.768;11.528;2024-02-15T08:30:55;6.07;;;3.27;;
83184;SDS011;73080;48.768;11.528;2024-02-15T08:33:21;7.15;;;4.30;;
83184;SDS011;73080;48.768;11.528;2024-02-15T08:35:46;8.27;;;4.20;;
83184;SDS011;73080;48.768;11.528;2024-02-15T08:38:14;7.33;;;3.50;;
83184;SDS011;73080;48.768;11.528;2024-02-15T08:40:40;6.57;;;3.67;;
83184;SDS011;73080;48.768;11.528;2024-02-15T08:43:05;7.73;;;3.77;;
83184;SDS011;73080;48.768;11.528;2024-02-15T08:45:30;6.00;;;3.20;;
83184;SDS011;73080;48.768;11.528;2024-02-15T08:47:56;7.17;;;3.50;;
83184;SDS011;73080;48.768;11.528;2024-02-15T08:50:21;6.10;;;3.20;;
83184;SDS011;73080;48.768;11.528;2024-02-15T08:52:46;6.63;;;3.47;;
83184;SDS011;73080;48.768;11.528;2024-02-15T08:55:14;6.77;;;3.77;;
83184;SDS011;73080;48.768;11.528;2024-02-15T08:57:40;6.68;;;3.42;;
83184;SDS011;73080;48.768;11.528;2024-02-15T09:00:06;5.72;;;2.70;;
83184;SDS011;73080;48.768;11.528;2024-02-15T09:02:33;7.22;;;3.05;;
83184;SDS011;73080;48.768;11.528;2024-02-15T09:04:58;8.20;;;3.43;;
83184;SDS011;73080;48.768;11.528;2024-02-15T09:07:24;6.60;;;3.00;;
83184;SDS011;73080;48.768;11.528;2024-02-15T09:09:49;7.43;;;3.13;;
83184;SDS011;73080;48.768;11.528;2024-02-15T09:12:14;6.20;;;3.37;;
83184;SDS011;73080;48.768;11.528;2024-02-15T09:14:40;6.57;;;3.38;;
83184;SDS011;73080;48.768;11.528;2024-02-15T09:17:05;6.93;;;3.40;;
83184;SDS011;73080;48.768;11.528;2024-02-15T09:19:30;6.30;;;3.30;;
83184;SDS011;73080;48.768;11.528;2024-02-15T09:21:56;6.90;;;3.13;;
83184;SDS011;73080;48.768;11.528;2024-02-15T09:24:21;6.07;;;3.13;;
83184;SDS011;73080;48.768;11.528;2024-02-15T09:26:46;6.03;;;3.50;;
83184;SDS011;73080;48.768;11.528;2024-02-15T09:29:12;7.60;;;3.33;;
83184;SDS011;73080;48.768;11.528;2024-02-15T09:31:37;7.07;;;3.60;;
83184;SDS011;73080;48.768;11.528;2024-02-15T09:34:02;6.60;;;2.63;;
83184;SDS011;73080;48.768;11.528;2024-02-15T09:36:27;5.30;;;3.43;;
83184;SDS011;73080;48.768;11.528;2024-02-15T09:38:53;6.80;;;3.80;;
83184;SDS011;73080;48.768;11.528;2024-02-15T09:41:18;6.53;;;2.97;;
83184;SDS011;73080;48.768;11.528;2024-02-15T09:43:43;8.30;;;3.40;;
83184;SDS011;73080;48.768;11.528;2024-02-15T09:46:09;5.83;;;2.80;;
83184;SDS011;73080;48.768;11.528;2024-02-15T09:48:34;7.57;;;3.23;;
83184;SDS011;73080;48.768;11.528;2024-02-15T09:50:59;6.88;;;3.63;;
83184;SDS011;73080;48.768;11.528;2024-02-15T09:53:26;5.80;;;3.13;;
83184;SDS011;73080;48.768;11.528;2024-02-15T09:55:53;6.82;;;3.25;;
83184;SDS011;73080;48.768;11.528;2024-02-15T09:58:18;6.35;;;3.30;;
83184;SDS011;73080;48.768;11.528;2024-02-15T10:00:44;8.20;;;3.37;;
83184;SDS011;73080;48.768;11.528;2024-02-15T10:03:09;7.40;;;3.40;;
83184;SDS011;73080;48.768;11.528;2024-02-15T10:05:39;7.53;;;3.08;;
83184;SDS011;73080;48.768;11.528;2024-02-15T10:08:04;9.38;;;3.28;;
83184;SDS011;73080;48.768;11.528;2024-02-15T10:10:30;6.40;;;3.03;;
83184;SDS011;73080;48.768;11.528;2024-02-15T10:12:55;6.63;;;3.00;;
83184;SDS011;73080;48.768;11.528;2024-02-15T10:15:27;8.10;;;3.80;;
83184;SDS011;73080;48.768;11.528;2024-02-15T10:17:56;6.53;;;3.28;;
83184;SDS011;73080;48.768;11.528;2024-02-15T10:20:22;6.32;;;3.20;;
83184;SDS011;73080;48.768;11.528;2024-02-15T10:22:48;8.60;;;3.10;;
83184;SDS011;73080;48.768;11.528;2024-02-15T10:25:13;7.13;;;3.40;;
83184;SDS011;73080;48.768;11.528;2024-02-15T10:27:39;6.18;;;3.60;;
83184;SDS011;73080;48.768;11.528;2024-02-15T10:30:15;6.57;;;3.70;;
83184;SDS011;73080;48.768;11.528;2024-02-15T10:32:41;7.05;;;3.35;;
83184;SDS011;73080;48.768;11.528;2024-02-15T10:35:07;7.00;;;3.28;;
83184;SDS011;73080;48.768;11.528;2024-02-15T10:37:33;7.83;;;3.50;;
83184;SDS011;73080;48.768;11.528;2024-02-15T10:40:04;8.07;;;3.20;;
83184;SDS011;73080;48.768;11.528;2024-02-15T10:42:30;6.53;;;2.85;;
83184;SDS011;73080;48.768;11.528;2024-02-15T10:44:56;6.90;;;2.92;;
83184;SDS011;73080;48.768;11.528;2024-02-15T10:47:22;7.50;;;2.88;;
83184;SDS011;73080;48.768;11.528;2024-02-15T10:49:48;7.22;;;3.00;;
83184;SDS011;73080;48.768;11.528;2024-02-15T10:52:14;6.80;;;3.15;;
83184;SDS011;73080;48.768;11.528;2024-02-15T10:57:21;8.00;;;2.90;;
83184;SDS011;73080;48.768;11.528;2024-02-15T10:59:51;5.70;;;2.53;;
83184;SDS011;73080;48.768;11.528;2024-02-15T11:02:37;6.68;;;2.55;;
83184;SDS011;73080;48.768;11.528;2024-02-15T11:07:30;7.30;;;2.60;;
83184;SDS011;73080;48.768;11.528;2024-02-15T11:09:57;6.05;;;2.13;;
83184;SDS011;73080;48.768;11.528;2024-02-15T11:12:26;4.70;;;2.50;;
83184;SDS011;73080;48.768;11.528;2024-02-15T11:14:52;5.28;;;2.40;;
83184;SDS011;73080;48.768;11.528;2024-02-15T11:20:04;5.07;;;2.38;;
83184;SDS011;73080;48.768;11.528;2024-02-15T11:22:34;5.22;;;2.00;;
83184;SDS011;73080;48.768;11.528;2024-02-15T11:24:59;6.63;;;2.30;;
83184;SDS011;73080;48.768;11.528;2024-02-15T11:27:25;4.65;;;1.85;;
83184;SDS011;73080;48.768;11.528;2024-02-15T11:30:02;4.15;;;1.80;;
83184;SDS011;73080;48.768;11.528;2024-02-15T11:40:24;4.85;;;1.90;;
83184;SDS011;73080;48.768;11.528;2024-02-15T11:45:23;4.03;;;1.60;;
83184;SDS011;73080;48.768;11.528;2024-02-15T11:47:49;5.47;;;2.00;;
83184;SDS011;73080;48.768;11.528;2024-02-15T11:50:16;5.28;;;1.90;;
83184;SDS011;73080;48.768;11.528;2024-02-15T11:52:45;5.68;;;1.38;;
83184;SDS011;73080;48.768;11.528;2024-02-15T11:55:12;4.45;;;1.17;;
83184;SDS011;73080;48.768;11.528;2024-02-15T11:57:37;4.38;;;1.75;;
83184;SDS011;73080;48.768;11.528;2024-02-15T12:00:02;3.80;;;1.53;;
83184;SDS011;73080;48.768;11.528;2024-02-15T12:02:28;3.75;;;1.40;;
83184;SDS011;73080;48.768;11.528;2024-02-15T12:04:57;3.83;;;1.25;;
83184;SDS011;73080;48.768;11.528;2024-02-15T12:07:22;4.40;;;1.67;;
83184;SDS011;73080;48.768;11.528;2024-02-15T12:09:47;3.83;;;1.50;;
83184;SDS011;73080;48.768;11.528;2024-02-15T12:12:12;4.70;;;1.40;;
83184;SDS011;73080;48.768;11.528;2024-02-15T12:14:38;4.73;;;1.50;;
83184;SDS011;73080;48.768;11.528;2024-02-15T12:17:04;4.47;;;1.63;;
83184;SDS011;73080;48.768;11.528;2024-02-15T12:19:31;3.60;;;1.38;;
83184;SDS011;73080;48.768;11.528;2024-02-15T12:21:56;3.70;;;1.73;;
83184;SDS011;73080;48.768;11.528;2024-02-15T12:24:25;5.00;;;1.30;;
83184;SDS011;73080;48.768;11.528;2024-02-15T12:26:51;4.25;;;1.30;;
83184;SDS011;73080;48.768;11.528;2024-02-15T12:29:17;3.90;;;1.20;;
83184;SDS011;73080;48.768;11.528;2024-02-15T12:31:43;3.88;;;1.20;;
83184;SDS011;73080;48.768;11.528;2024-02-15T12:34:08;4.03;;;1.30;;
83184;SDS011;73080;48.768;11.528;2024-02-15T12:36:34;3.73;;;1.37;;
83184;SDS011;73080;48.768;11.528;2024-02-15T12:39:00;3.70;;;1.33;;
83184;SDS011;73080;48.768;11.528;2024-02-15T12:41:30;5.10;;;1.50;;
83184;SDS011;73080;48.768;11.528;2024-02-15T12:43:55;5.22;;;1.50;;
83184;SDS011;73080;48.768;11.528;2024-02-15T12:46:20;2.10;;;0.73;;
83184;SDS011;73080;48.768;11.528;2024-02-15T12:48:46;4.28;;;1.10;;
83184;SDS011;73080;48.768;11.528;2024-02-15T12:51:14;3.60;;;1.20;;
83184;SDS011;73080;48.768;11.528;2024-02-15T12:53:40;3.35;;;1.17;;
83184;SDS011;73080;48.768;11.528;2024-02-15T12:56:05;4.30;;;1.05;;
83184;SDS011;73080;48.768;11.528;2024-02-15T12:58:31;3.97;;;1.00;;
83184;SDS011;73080;48.768;11.528;2024-02-15T13:00:56;2.58;;;0.90;;
83184;SDS011;73080;48.768;11.528;2024-02-15T13:03:22;3.70;;;1.10;;
83184;SDS011;73080;48.768;11.528;2024-02-15T13:05:47;3.13;;;0.97;;
83184;SDS011;73080;48.768;11.528;2024-02-15T13:08:12;3.30;;;1.10;;
83184;SDS011;73080;48.768;11.528;2024-02-15T13:10:37;5.30;;;1.53;;
83184;SDS011;73080;48.768;11.528;2024-02-15T13:13:03;3.53;;;1.00;;
83184;SDS011;73080;48.768;11.528;2024-02-15T13:15:28;4.65;;;1.30;;
83184;SDS011;73080;48.768;11.528;2024-02-15T13:17:54;3.70;;;1.20;;
83184;SDS011;73080;48.768;11.528;2024-02-15T13:20:26;5.35;;;1.10;;
83184;SDS011;73080;48.768;11.528;2024-02-15T13:23:01;4.28;;;1.25;;
83184;SDS011;73080;48.768;11.528;2024-02-15T13:25:28;3.17;;;0.73;;
83184;SDS011;73080;48.768;11.528;2024-02-15T13:27:54;4.10;;;1.02;;
83184;SDS011;73080;48.768;11.528;2024-02-15T13:30:19;3.50;;;1.00;;
83184;SDS011;73080;48.768;11.528;2024-02-15T13:32:44;2.90;;;1.00;;
83184;SDS011;73080;48.768;11.528;2024-02-15T13:35:10;3.30;;;0.90;;
83184;SDS011;73080;48.768;11.528;2024-02-15T13:37:42;8.13;;;1.20;;
83184;SDS011;73080;48.768;11.528;2024-02-15T13:40:08;3.53;;;0.90;;
83184;SDS011;73080;48.768;11.528;2024-02-15T13:42:36;3.00;;;1.10;;
83184;SDS011;73080;48.768;11.528;2024-02-15T13:45:02;3.50;;;0.93;;
83184;SDS011;73080;48.768;11.528;2024-02-15T13:47:34;4.05;;;0.90;;
83184;SDS011;73080;48.768;11.528;2024-02-15T13:49:59;3.15;;;1.00;;
83184;SDS011;73080;48.768;11.528;2024-02-15T13:52:28;3.22;;;1.10;;
83184;SDS011;73080;48.768;11.528;2024-02-15T13:54:53;4.25;;;2.15;;
83184;SDS011;73080;48.768;11.528;2024-02-15T13:57:18;4.90;;;1.20;;
83184;SDS011;73080;48.768;11.528;2024-02-15T13:59:44;3.37;;;1.07;;
83184;SDS011;73080;48.768;11.528;2024-02-15T14:02:09;3.93;;;0.90;;
83184;SDS011;73080;48.768;11.528;2024-02-15T14:04:34;5.17;;;1.53;;
83184;SDS011;73080;48.768;11.528;2024-02-15T14:06:59;3.10;;;0.80;;
83184;SDS011;73080;48.768;11.528;2024-02-15T14:09:25;2.50;;;0.80;;
83184;SDS011;73080;48.768;11.528;2024-02-15T14:11:50;3.07;;;1.10;;
83184;SDS011;73080;48.768;11.528;2024-02-15T14:14:15;2.67;;;0.80;;
83184;SDS011;73080;48.768;11.528;2024-02-15T14:16:40;2.23;;;0.90;;
83184;SDS011;73080;48.768;11.528;2024-02-15T14:19:06;4.57;;;1.60;;
83184;SDS011;73080;48.768;11.528;2024-02-15T14:21:32;3.58;;;0.80;;
83184;SDS011;73080;48.768;11.528;2024-02-15T14:23:57;2.87;;;0.77;;
83184;SDS011;73080;48.768;11.528;2024-02-15T14:26:22;2.87;;;0.97;;
83184;SDS011;73080;48.768;11.528;2024-02-15T14:28:47;4.90;;;1.10;;
83184;SDS011;73080;48.768;11.528;2024-02-15T14:31:13;3.17;;;1.03;;
83184;SDS011;73080;48.768;11.528;2024-02-15T14:33:43;2.30;;;0.80;;
83184;SDS011;73080;48.768;11.528;2024-02-15T14:36:08;2.80;;;1.17;;
83184;SDS011;73080;48.768;11.528;2024-02-15T14:38:33;2.37;;;0.90;;
83184;SDS011;73080;48.768;11.528;2024-02-15T14:40:59;3.17;;;1.00;;
83184;SDS011;73080;48.768;11.528;2024-02-15T14:43:24;3.72;;;1.48;;
83184;SDS011;73080;48.768;11.528;2024-02-15T14:45:49;4.67;;;1.57;;
83184;SDS011;73080;48.768;11.528;2024-02-15T14:48:14;7.13;;;2.00;;
83184;SDS011;73080;48.768;11.528;2024-02-15T14:50:41;6.88;;;1.90;;
83184;SDS011;73080;48.768;11.528;2024-02-15T14:53:06;6.18;;;1.90;;